sensor_id;sensor_type;location;lat;lon;timestamp;P1;durP1;ratioP1;P2;durP2;ratioP2
63089;SDS011;49174;43.198;27.824;2023-09-12T00:00:55;4.65;;;3.50;;
63089;SDS011;49174;43.198;27.824;2023-09-12T00:03:21;6.32;;;3.60;;
63089;SDS011;49174;43.198;27.824;2023-09-12T00:05:52;3.90;;;3.38;;
63089;SDS011;49174;43.198;27.824;2023-09-12T00:08:23;8.60;;;3.90;;
63089;SDS011;49174;43.198;27.824;2023-09-12T00:11:05;5.00;;;3.70;;
63089;SDS011;49174;43.198;27.824;2023-09-12T00:13:35;4.45;;;3.50;;
63089;SDS011;49174;43.198;27.824;2023-09-12T00:16:01;5.50;;;3.92;;
63089;SDS011;49174;43.198;27.824;2023-09-12T00:18:27;7.43;;;4.05;;
63089;SDS011;49174;43.198;27.824;2023-09-12T00:20:53;4.95;;;4.15;;
63089;SDS011;49174;43.198;27.824;2023-09-12T00:23:20;6.40;;;4.28;;
63089;SDS011;49174;43.198;27.824;2023-09-12T00:25:47;8.18;;;5.05;;
63089;SDS011;49174;43.198;27.824;2023-09-12T00:28:12;5.88;;;4.25;;
63089;SDS011;49174;43.198;27.824;2023-09-12T00:30:38;6.70;;;4.22;;
63089;SDS011;49174;43.198;27.824;2023-09-12T00:33:03;6.22;;;4.50;;
63089;SDS011;49174;43.198;27.824;2023-09-12T00:35:29;5.78;;;4.75;;
63089;SDS011;49174;43.198;27.824;2023-09-12T00:37:54;9.85;;;4.57;;
63089;SDS011;49174;43.198;27.824;2023-09-12T00:40:20;6.38;;;4.80;;
63089;SDS011;49174;43.198;27.824;2023-09-12T00:42:46;6.03;;;4.78;;
63089;SDS011;49174;43.198;27.824;2023-09-12T00:45:12;8.18;;;5.03;;
63089;SDS011;49174;43.198;27.824;2023-09-12T00:47:37;10.52;;;6.15;;
63089;SDS011;49174;43.198;27.824;2023-09-12T00:50:04;7.85;;;5.38;;
63089;SDS011;49174;43.198;27.824;2023-09-12T00:52:30;6.43;;;5.30;;
63089;SDS011;49174;43.198;27.824;2023-09-12T00:54:58;10.13;;;5.97;;
63089;SDS011;49174;43.198;27.824;2023-09-12T00:57:24;5.88;;;4.97;;
63089;SDS011;49174;43.198;27.824;2023-09-12T00:59:51;7.28;;;5.30;;
63089;SDS011;49174;43.198;27.824;2023-09-12T01:02:19;6.60;;;5.25;;
63089;SDS011;49174;43.198;27.824;2023-09-12T01:04:48;9.60;;;6.07;;
63089;SDS011;49174;43.198;27.824;2023-09-12T01:07:14;10.70;;;6.90;;
63089;SDS011;49174;43.198;27.824;2023-09-12T01:09:40;10.35;;;6.10;;
63089;SDS011;49174;43.198;27.824;2023-09-12T01:12:06;7.10;;;5.88;;
63089;SDS011;49174;43.198;27.824;2023-09-12T01:14:32;14.05;;;6.00;;
63089;SDS011;49174;43.198;27.824;2023-09-12T01:16:57;8.88;;;5.97;;
63089;SDS011;49174;43.198;27.824;2023-09-12T01:19:23;11.52;;;6.03;;
63089;SDS011;49174;43.198;27.824;2023-09-12T01:27:28;9.85;;;6.60;;
63089;SDS011;49174;43.198;27.824;2023-09-12T01:29:58;6.90;;;5.78;;
63089;SDS011;49174;43.198;27.824;2023-09-12T01:32:29;11.55;;;7.38;;
63089;SDS011;49174;43.198;27.824;2023-09-12T01:34:54;10.45;;;6.80;;
63089;SDS011;49174;43.198;27.824;2023-09-12T01:37:20;10.15;;;7.15;;
63089;SDS011;49174;43.198;27.824;2023-09-12T01:39:46;8.05;;;6.93;;
63089;SDS011;49174;43.198;27.824;2023-09-12T01:42:13;9.90;;;7.38;;
63089;SDS011;49174;43.198;27.824;2023-09-12T01:44:44;11.70;;;7.25;;
63089;SDS011;49174;43.198;27.824;2023-09-12T01:47:12;10.95;;;8.57;;
63089;SDS011;49174;43.198;27.824;2023-09-12T01:49:40;14.02;;;7.68;;
63089;SDS011;49174;43.198;27.824;2023-09-12T01:52:09;9.48;;;8.32;;
63089;SDS011;49174;43.198;27.824;2023-09-12T01:54:35;10.30;;;8.85;;
63089;SDS011;49174;43.198;27.824;2023-09-12T01:57:02;12.55;;;8.90;;
63089;SDS011;49174;43.198;27.824;2023-09-12T01:59:28;14.57;;;9.57;;
63089;SDS011;49174;43.198;27.824;2023-09-12T02:01:54;10.55;;;9.40;;
63089;SDS011;49174;43.198;27.824;2023-09-12T02:04:20;12.80;;;9.50;;
63089;SDS011;49174;43.198;27.824;2023-09-12T02:06:46;13.82;;;9.73;;
63089;SDS011;49174;43.198;27.824;2023-09-12T02:09:11;14.00;;;10.20;;
63089;SDS011;49174;43.198;27.824;2023-09-12T02:11:37;13.98;;;11.10;;
63089;SDS011;49174;43.198;27.824;2023-09-12T02:14:02;14.80;;;10.70;;
63089;SDS011;49174;43.198;27.824;2023-09-12T02:16:28;11.02;;;9.85;;
63089;SDS011;49174;43.198;27.824;2023-09-12T02:18:54;15.25;;;10.85;;
63089;SDS011;49174;43.198;27.824;2023-09-12T02:21:20;12.68;;;11.15;;
63089;SDS011;49174;43.198;27.824;2023-09-12T02:23:45;15.25;;;11.70;;
63089;SDS011;49174;43.198;27.824;2023-09-12T02:26:11;16.75;;;11.73;;
63089;SDS011;49174;43.198;27.824;2023-09-12T02:28:36;13.15;;;11.27;;
63089;SDS011;49174;43.198;27.824;2023-09-12T02:31:02;18.10;;;12.57;;
63089;SDS011;49174;43.198;27.824;2023-09-12T02:33:27;17.55;;;13.25;;
63089;SDS011;49174;43.198;27.824;2023-09-12T02:35:53;19.80;;;14.13;;
63089;SDS011;49174;43.198;27.824;2023-09-12T02:38:19;16.48;;;13.38;;
63089;SDS011;49174;43.198;27.824;2023-09-12T02:40:44;22.45;;;13.05;;
63089;SDS011;49174;43.198;27.824;2023-09-12T02:43:10;19.63;;;15.73;;
63089;SDS011;49174;43.198;27.824;2023-09-12T02:45:35;18.30;;;14.50;;
63089;SDS011;49174;43.198;27.824;2023-09-12T02:48:01;20.08;;;13.13;;
63089;SDS011;49174;43.198;27.824;2023-09-12T02:50:26;15.45;;;12.23;;
63089;SDS011;49174;43.198;27.824;2023-09-12T02:52:52;15.40;;;13.13;;
63089;SDS011;49174;43.198;27.824;2023-09-12T02:55:17;16.42;;;12.23;;
63089;SDS011;49174;43.198;27.824;2023-09-12T02:57:43;17.17;;;13.40;;
63089;SDS011;49174;43.198;27.824;2023-09-12T03:00:08;18.48;;;13.27;;
63089;SDS011;49174;43.198;27.824;2023-09-12T03:02:36;19.80;;;12.68;;
63089;SDS011;49174;43.198;27.824;2023-09-12T03:05:02;14.88;;;12.10;;
63089;SDS011;49174;43.198;27.824;2023-09-12T03:07:28;15.05;;;12.23;;
63089;SDS011;49174;43.198;27.824;2023-09-12T03:09:54;17.02;;;10.98;;
63089;SDS011;49174;43.198;27.824;2023-09-12T03:12:20;15.82;;;11.82;;
63089;SDS011;49174;43.198;27.824;2023-09-12T03:14:45;13.48;;;11.73;;
63089;SDS011;49174;43.198;27.824;2023-09-12T03:17:11;17.15;;;11.52;;
63089;SDS011;49174;43.198;27.824;2023-09-12T03:19:36;17.13;;;11.07;;
63089;SDS011;49174;43.198;27.824;2023-09-12T03:22:02;15.77;;;11.70;;
63089;SDS011;49174;43.198;27.824;2023-09-12T03:24:28;19.48;;;12.43;;
63089;SDS011;49174;43.198;27.824;2023-09-12T03:26:54;20.38;;;13.13;;
63089;SDS011;49174;43.198;27.824;2023-09-12T03:29:19;19.02;;;12.70;;
63089;SDS011;49174;43.198;27.824;2023-09-12T03:31:45;17.90;;;12.70;;
63089;SDS011;49174;43.198;27.824;2023-09-12T03:34:10;21.20;;;13.20;;
63089;SDS011;49174;43.198;27.824;2023-09-12T03:36:36;21.67;;;12.70;;
63089;SDS011;49174;43.198;27.824;2023-09-12T03:39:01;27.00;;;13.38;;
63089;SDS011;49174;43.198;27.824;2023-09-12T03:41:28;15.95;;;11.68;;
63089;SDS011;49174;43.198;27.824;2023-09-12T03:43:54;20.33;;;12.40;;
63089;SDS011;49174;43.198;27.824;2023-09-12T03:46:20;17.48;;;11.63;;
63089;SDS011;49174;43.198;27.824;2023-09-12T03:48:46;17.63;;;12.02;;
63089;SDS011;49174;43.198;27.824;2023-09-12T03:51:12;17.27;;;11.60;;
63089;SDS011;49174;43.198;27.824;2023-09-12T03:53:38;16.88;;;12.32;;
63089;SDS011;49174;43.198;27.824;2023-09-12T03:56:04;17.38;;;12.88;;
63089;SDS011;49174;43.198;27.824;2023-09-12T03:58:29;13.82;;;11.88;;
63089;SDS011;49174;43.198;27.824;2023-09-12T04:00:55;16.92;;;12.20;;
63089;SDS011;49174;43.198;27.824;2023-09-12T04:03:20;14.18;;;12.30;;
63089;SDS011;49174;43.198;27.824;2023-09-12T04:05:46;14.77;;;12.05;;
63089;SDS011;49174;43.198;27.824;2023-09-12T04:08:12;16.42;;;12.93;;
63089;SDS011;49174;43.198;27.824;2023-09-12T04:10:38;16.30;;;13.20;;
63089;SDS011;49174;43.198;27.824;2023-09-12T04:13:04;15.65;;;13.18;;
63089;SDS011;49174;43.198;27.824;2023-09-12T04:15:29;16.55;;;13.65;;
63089;SDS011;49174;43.198;27.824;2023-09-12T04:17:55;14.25;;;12.75;;
63089;SDS011;49174;43.198;27.824;2023-09-12T04:20:20;19.02;;;11.75;;
63089;SDS011;49174;43.198;27.824;2023-09-12T04:22:46;19.27;;;11.43;;
63089;SDS011;49174;43.198;27.824;2023-09-12T04:25:11;15.02;;;11.63;;
63089;SDS011;49174;43.198;27.824;2023-09-12T04:27:37;14.48;;;10.82;;
63089;SDS011;49174;43.198;27.824;2023-09-12T04:30:03;15.23;;;9.95;;
63089;SDS011;49174;43.198;27.824;2023-09-12T04:32:29;12.55;;;9.77;;
63089;SDS011;49174;43.198;27.824;2023-09-12T04:34:55;15.65;;;10.18;;
63089;SDS011;49174;43.198;27.824;2023-09-12T04:37:20;13.75;;;11.00;;
63089;SDS011;49174;43.198;27.824;2023-09-12T04:39:46;16.48;;;11.27;;
63089;SDS011;49174;43.198;27.824;2023-09-12T04:42:11;13.80;;;10.95;;
63089;SDS011;49174;43.198;27.824;2023-09-12T04:44:40;14.38;;;11.77;;
63089;SDS011;49174;43.198;27.824;2023-09-12T04:47:06;16.85;;;11.75;;
63089;SDS011;49174;43.198;27.824;2023-09-12T04:49:33;16.05;;;11.32;;
63089;SDS011;49174;43.198;27.824;2023-09-12T04:51:58;16.20;;;10.80;;
63089;SDS011;49174;43.198;27.824;2023-09-12T04:54:24;12.13;;;10.25;;
63089;SDS011;49174;43.198;27.824;2023-09-12T04:56:50;18.90;;;13.13;;
63089;SDS011;49174;43.198;27.824;2023-09-12T04:59:16;17.92;;;13.07;;
63089;SDS011;49174;43.198;27.824;2023-09-12T05:01:41;17.38;;;13.05;;
63089;SDS011;49174;43.198;27.824;2023-09-12T05:04:07;14.05;;;12.18;;
63089;SDS011;49174;43.198;27.824;2023-09-12T05:06:33;17.45;;;11.90;;
63089;SDS011;49174;43.198;27.824;2023-09-12T05:08:59;13.45;;;11.10;;
63089;SDS011;49174;43.198;27.824;2023-09-12T05:11:24;16.00;;;10.73;;
63089;SDS011;49174;43.198;27.824;2023-09-12T05:13:50;18.65;;;12.60;;
63089;SDS011;49174;43.198;27.824;2023-09-12T05:16:16;13.25;;;11.32;;
63089;SDS011;49174;43.198;27.824;2023-09-12T05:18:42;19.23;;;11.38;;
63089;SDS011;49174;43.198;27.824;2023-09-12T05:21:07;19.67;;;13.23;;
63089;SDS011;49174;43.198;27.824;2023-09-12T05:23:32;19.40;;;11.68;;
63089;SDS011;49174;43.198;27.824;2023-09-12T05:25:58;14.15;;;10.25;;
63089;SDS011;49174;43.198;27.824;2023-09-12T05:28:24;13.88;;;11.48;;
63089;SDS011;49174;43.198;27.824;2023-09-12T05:30:50;16.80;;;9.80;;
63089;SDS011;49174;43.198;27.824;2023-09-12T05:33:15;13.95;;;11.02;;
63089;SDS011;49174;43.198;27.824;2023-09-12T05:35:41;14.25;;;9.63;;
63089;SDS011;49174;43.198;27.824;2023-09-12T05:38:09;14.77;;;8.80;;
63089;SDS011;49174;43.198;27.824;2023-09-12T05:40:35;13.40;;;7.35;;
63089;SDS011;49174;43.198;27.824;2023-09-12T05:43:00;10.23;;;7.85;;
63089;SDS011;49174;43.198;27.824;2023-09-12T05:45:28;12.75;;;8.65;;
63089;SDS011;49174;43.198;27.824;2023-09-12T05:47:55;11.23;;;8.07;;
63089;SDS011;49174;43.198;27.824;2023-09-12T05:50:21;15.07;;;9.45;;
63089;SDS011;49174;43.198;27.824;2023-09-12T05:52:48;12.38;;;9.82;;
63089;SDS011;49174;43.198;27.824;2023-09-12T05:55:14;17.33;;;9.20;;
63089;SDS011;49174;43.198;27.824;2023-09-12T05:57:40;16.08;;;8.27;;
63089;SDS011;49174;43.198;27.824;2023-09-12T06:00:06;16.10;;;7.95;;
63089;SDS011;49174;43.198;27.824;2023-09-12T06:02:37;15.75;;;7.97;;
63089;SDS011;49174;43.198;27.824;2023-09-12T06:05:04;15.77;;;9.40;;
63089;SDS011;49174;43.198;27.824;2023-09-12T06:07:29;14.32;;;9.52;;
63089;SDS011;49174;43.198;27.824;2023-09-12T06:09:57;17.60;;;10.98;;
63089;SDS011;49174;43.198;27.824;2023-09-12T06:12:23;18.17;;;10.88;;
63089;SDS011;49174;43.198;27.824;2023-09-12T06:14:48;18.50;;;10.90;;
63089;SDS011;49174;43.198;27.824;2023-09-12T06:17:14;14.45;;;10.95;;
63089;SDS011;49174;43.198;27.824;2023-09-12T06:19:39;14.48;;;10.70;;
63089;SDS011;49174;43.198;27.824;2023-09-12T06:22:05;13.73;;;10.55;;
63089;SDS011;49174;43.198;27.824;2023-09-12T06:24:30;11.85;;;8.82;;
63089;SDS011;49174;43.198;27.824;2023-09-12T06:26:57;16.20;;;10.80;;
63089;SDS011;49174;43.198;27.824;2023-09-12T06:29:23;20.48;;;13.85;;
63089;SDS011;49174;43.198;27.824;2023-09-12T06:31:48;20.60;;;15.32;;
63089;SDS011;49174;43.198;27.824;2023-09-12T06:34:14;25.30;;;17.83;;
63089;SDS011;49174;43.198;27.824;2023-09-12T06:36:40;29.52;;;19.15;;
63089;SDS011;49174;43.198;27.824;2023-09-12T06:39:10;37.80;;;25.15;;
63089;SDS011;49174;43.198;27.824;2023-09-12T06:41:35;44.42;;;23.73;;
63089;SDS011;49174;43.198;27.824;2023-09-12T06:44:01;38.30;;;26.52;;
63089;SDS011;49174;43.198;27.824;2023-09-12T06:46:28;51.55;;;32.88;;
63089;SDS011;49174;43.198;27.824;2023-09-12T06:48:53;51.80;;;34.83;;
63089;SDS011;49174;43.198;27.824;2023-09-12T06:51:22;49.58;;;32.67;;
63089;SDS011;49174;43.198;27.824;2023-09-12T06:53:48;46.42;;;30.67;;
63089;SDS011;49174;43.198;27.824;2023-09-12T06:56:14;49.70;;;32.47;;
63089;SDS011;49174;43.198;27.824;2023-09-12T06:58:40;42.47;;;29.25;;
63089;SDS011;49174;43.198;27.824;2023-09-12T07:01:05;46.53;;;30.75;;
63089;SDS011;49174;43.198;27.824;2023-09-12T07:03:32;46.78;;;29.33;;
63089;SDS011;49174;43.198;27.824;2023-09-12T07:05:58;42.40;;;29.08;;
63089;SDS011;49174;43.198;27.824;2023-09-12T07:08:24;38.22;;;27.38;;
63089;SDS011;49174;43.198;27.824;2023-09-12T07:10:49;46.17;;;24.80;;
63089;SDS011;49174;43.198;27.824;2023-09-12T07:13:15;35.35;;;24.23;;
63089;SDS011;49174;43.198;27.824;2023-09-12T07:15:41;31.50;;;21.45;;
63089;SDS011;49174;43.198;27.824;2023-09-12T07:18:07;28.27;;;19.80;;
63089;SDS011;49174;43.198;27.824;2023-09-12T07:20:33;31.92;;;21.52;;
63089;SDS011;49174;43.198;27.824;2023-09-12T07:22:59;28.00;;;19.48;;
63089;SDS011;49174;43.198;27.824;2023-09-12T07:25:25;24.88;;;15.43;;
63089;SDS011;49174;43.198;27.824;2023-09-12T07:27:51;17.92;;;13.23;;
63089;SDS011;49174;43.198;27.824;2023-09-12T07:30:16;21.48;;;16.02;;
63089;SDS011;49174;43.198;27.824;2023-09-12T07:32:42;20.27;;;15.43;;
63089;SDS011;49174;43.198;27.824;2023-09-12T07:35:08;20.45;;;16.23;;
63089;SDS011;49174;43.198;27.824;2023-09-12T07:37:34;16.95;;;12.48;;
63089;SDS011;49174;43.198;27.824;2023-09-12T07:40:00;12.23;;;8.52;;
63089;SDS011;49174;43.198;27.824;2023-09-12T07:42:26;12.80;;;6.20;;
63089;SDS011;49174;43.198;27.824;2023-09-12T07:44:52;10.10;;;5.50;;
63089;SDS011;49174;43.198;27.824;2023-09-12T07:47:18;4.75;;;3.22;;
63089;SDS011;49174;43.198;27.824;2023-09-12T07:49:44;3.83;;;2.55;;
63089;SDS011;49174;43.198;27.824;2023-09-12T07:52:09;6.75;;;3.58;;
63089;SDS011;49174;43.198;27.824;2023-09-12T07:54:35;3.60;;;2.03;;
63089;SDS011;49174;43.198;27.824;2023-09-12T07:57:02;4.72;;;2.30;;
63089;SDS011;49174;43.198;27.824;2023-09-12T07:59:28;2.70;;;2.17;;
63089;SDS011;49174;43.198;27.824;2023-09-12T08:01:54;4.70;;;2.28;;
63089;SDS011;49174;43.198;27.824;2023-09-12T08:04:19;3.58;;;2.35;;
63089;SDS011;49174;43.198;27.824;2023-09-12T08:06:45;6.00;;;1.90;;
63089;SDS011;49174;43.198;27.824;2023-09-12T08:09:11;8.45;;;2.85;;
63089;SDS011;49174;43.198;27.824;2023-09-12T08:11:38;3.75;;;2.28;;
63089;SDS011;49174;43.198;27.824;2023-09-12T08:14:03;4.07;;;2.17;;
63089;SDS011;49174;43.198;27.824;2023-09-12T08:16:30;3.75;;;1.90;;
63089;SDS011;49174;43.198;27.824;2023-09-12T08:18:57;6.18;;;2.33;;
63089;SDS011;49174;43.198;27.824;2023-09-12T08:21:23;5.38;;;2.10;;
63089;SDS011;49174;43.198;27.824;2023-09-12T08:23:48;3.78;;;2.25;;
63089;SDS011;49174;43.198;27.824;2023-09-12T08:26:14;4.05;;;2.00;;
63089;SDS011;49174;43.198;27.824;2023-09-12T08:28:39;5.80;;;2.10;;
63089;SDS011;49174;43.198;27.824;2023-09-12T08:31:05;3.60;;;2.08;;
63089;SDS011;49174;43.198;27.824;2023-09-12T08:33:31;7.00;;;2.10;;
63089;SDS011;49174;43.198;27.824;2023-09-12T08:35:56;2.95;;;2.15;;
63089;SDS011;49174;43.198;27.824;2023-09-12T08:38:22;3.85;;;2.20;;
63089;SDS011;49174;43.198;27.824;2023-09-12T08:40:48;7.60;;;2.28;;
63089;SDS011;49174;43.198;27.824;2023-09-12T08:43:15;3.80;;;1.50;;
63089;SDS011;49174;43.198;27.824;2023-09-12T08:45:41;2.70;;;1.98;;
63089;SDS011;49174;43.198;27.824;2023-09-12T08:48:09;4.07;;;2.38;;
63089;SDS011;49174;43.198;27.824;2023-09-12T08:50:36;4.22;;;2.05;;
63089;SDS011;49174;43.198;27.824;2023-09-12T08:53:01;3.28;;;2.13;;
63089;SDS011;49174;43.198;27.824;2023-09-12T08:55:28;2.00;;;1.65;;
63089;SDS011;49174;43.198;27.824;2023-09-12T08:57:55;3.97;;;2.17;;
63089;SDS011;49174;43.198;27.824;2023-09-12T09:00:22;6.38;;;2.15;;
63089;SDS011;49174;43.198;27.824;2023-09-12T09:02:49;15.38;;;10.15;;
63089;SDS011;49174;43.198;27.824;2023-09-12T09:05:15;4.82;;;2.00;;
63089;SDS011;49174;43.198;27.824;2023-09-12T09:07:42;5.32;;;2.33;;
63089;SDS011;49174;43.198;27.824;2023-09-12T09:10:15;3.00;;;2.03;;
63089;SDS011;49174;43.198;27.824;2023-09-12T09:12:43;3.28;;;2.20;;
63089;SDS011;49174;43.198;27.824;2023-09-12T09:15:29;2.97;;;2.22;;
63089;SDS011;49174;43.198;27.824;2023-09-12T09:17:57;3.15;;;2.00;;
63089;SDS011;49174;43.198;27.824;2023-09-12T09:20:29;5.47;;;1.88;;
63089;SDS011;49174;43.198;27.824;2023-09-12T09:25:30;2.95;;;1.90;;
63089;SDS011;49174;43.198;27.824;2023-09-12T09:27:56;3.30;;;1.90;;
63089;SDS011;49174;43.198;27.824;2023-09-12T09:33:07;2.67;;;1.80;;
63089;SDS011;49174;43.198;27.824;2023-09-12T09:35:32;2.45;;;1.98;;
63089;SDS011;49174;43.198;27.824;2023-09-12T09:37:58;2.33;;;1.73;;
63089;SDS011;49174;43.198;27.824;2023-09-12T09:40:24;4.95;;;2.00;;
63089;SDS011;49174;43.198;27.824;2023-09-12T09:42:58;4.30;;;2.08;;
63089;SDS011;49174;43.198;27.824;2023-09-12T09:45:26;2.80;;;1.80;;
63089;SDS011;49174;43.198;27.824;2023-09-12T09:47:52;3.10;;;2.00;;
63089;SDS011;49174;43.198;27.824;2023-09-12T09:50:22;5.35;;;1.90;;
63089;SDS011;49174;43.198;27.824;2023-09-12T09:52:52;3.58;;;2.33;;
63089;SDS011;49174;43.198;27.824;2023-09-12T09:55:20;2.65;;;2.13;;
63089;SDS011;49174;43.198;27.824;2023-09-12T09:57:45;4.80;;;2.10;;
63089;SDS011;49174;43.198;27.824;2023-09-12T10:00:13;2.20;;;1.70;;
63089;SDS011;49174;43.198;27.824;2023-09-12T10:02:40;5.40;;;2.00;;
63089;SDS011;49174;43.198;27.824;2023-09-12T10:05:08;3.13;;;2.10;;
63089;SDS011;49174;43.198;27.824;2023-09-12T10:07:37;3.33;;;1.65;;
63089;SDS011;49174;43.198;27.824;2023-09-12T10:10:03;2.03;;;1.67;;
63089;SDS011;49174;43.198;27.824;2023-09-12T10:12:34;4.30;;;2.10;;
63089;SDS011;49174;43.198;27.824;2023-09-12T10:15:00;2.38;;;1.70;;
63089;SDS011;49174;43.198;27.824;2023-09-12T10:17:30;2.30;;;1.70;;
63089;SDS011;49174;43.198;27.824;2023-09-12T10:20:02;2.53;;;1.90;;
63089;SDS011;49174;43.198;27.824;2023-09-12T10:22:48;2.90;;;1.48;;
63089;SDS011;49174;43.198;27.824;2023-09-12T10:25:21;3.15;;;2.25;;
63089;SDS011;49174;43.198;27.824;2023-09-12T10:27:48;4.03;;;1.90;;
63089;SDS011;49174;43.198;27.824;2023-09-12T10:30:14;3.42;;;1.70;;
63089;SDS011;49174;43.198;27.824;2023-09-12T10:32:41;4.05;;;2.42;;
63089;SDS011;49174;43.198;27.824;2023-09-12T10:35:09;4.05;;;1.95;;
63089;SDS011;49174;43.198;27.824;2023-09-12T10:37:35;1.90;;;1.50;;
63089;SDS011;49174;43.198;27.824;2023-09-12T10:40:04;2.05;;;1.73;;
63089;SDS011;49174;43.198;27.824;2023-09-12T10:42:33;4.10;;;1.83;;
63089;SDS011;49174;43.198;27.824;2023-09-12T10:44:59;2.50;;;1.40;;
63089;SDS011;49174;43.198;27.824;2023-09-12T10:47:29;2.70;;;1.67;;
63089;SDS011;49174;43.198;27.824;2023-09-12T10:49:56;4.32;;;1.45;;
63089;SDS011;49174;43.198;27.824;2023-09-12T10:52:28;2.25;;;1.38;;
63089;SDS011;49174;43.198;27.824;2023-09-12T10:54:54;6.75;;;1.55;;
63089;SDS011;49174;43.198;27.824;2023-09-12T10:57:20;2.95;;;1.50;;
63089;SDS011;49174;43.198;27.824;2023-09-12T11:02:31;2.83;;;1.70;;
63089;SDS011;49174;43.198;27.824;2023-09-12T11:12:42;3.67;;;1.67;;
63089;SDS011;49174;43.198;27.824;2023-09-12T11:15:09;4.38;;;1.48;;
63089;SDS011;49174;43.198;27.824;2023-09-12T11:17:38;3.20;;;1.80;;
63089;SDS011;49174;43.198;27.824;2023-09-12T11:20:07;2.35;;;1.38;;
63089;SDS011;49174;43.198;27.824;2023-09-12T11:22:37;2.20;;;1.60;;
63089;SDS011;49174;43.198;27.824;2023-09-12T11:25:23;2.92;;;1.40;;
63089;SDS011;49174;43.198;27.824;2023-09-12T11:30:19;5.82;;;1.58;;
63089;SDS011;49174;43.198;27.824;2023-09-12T11:32:56;2.10;;;1.42;;
63089;SDS011;49174;43.198;27.824;2023-09-12T11:35:23;2.40;;;1.50;;
63089;SDS011;49174;43.198;27.824;2023-09-12T11:37:59;5.20;;;1.60;;
63089;SDS011;49174;43.198;27.824;2023-09-12T11:40:40;5.45;;;1.33;;
63089;SDS011;49174;43.198;27.824;2023-09-12T11:43:08;6.28;;;1.60;;
63089;SDS011;49174;43.198;27.824;2023-09-12T11:45:43;3.03;;;1.20;;
63089;SDS011;49174;43.198;27.824;2023-09-12T11:48:09;2.90;;;1.40;;
63089;SDS011;49174;43.198;27.824;2023-09-12T11:50:35;2.13;;;1.50;;
63089;SDS011;49174;43.198;27.824;2023-09-12T11:53:07;2.15;;;1.10;;
63089;SDS011;49174;43.198;27.824;2023-09-12T11:55:42;1.75;;;1.30;;
63089;SDS011;49174;43.198;27.824;2023-09-12T11:58:13;5.85;;;1.65;;
63089;SDS011;49174;43.198;27.824;2023-09-12T12:00:43;2.42;;;1.48;;
63089;SDS011;49174;43.198;27.824;2023-09-12T12:03:13;2.17;;;1.55;;
63089;SDS011;49174;43.198;27.824;2023-09-12T12:05:42;2.47;;;1.85;;
63089;SDS011;49174;43.198;27.824;2023-09-12T12:08:08;2.00;;;1.38;;
63089;SDS011;49174;43.198;27.824;2023-09-12T12:10:36;2.10;;;1.55;;
63089;SDS011;49174;43.198;27.824;2023-09-12T12:13:04;1.48;;;1.35;;
63089;SDS011;49174;43.198;27.824;2023-09-12T12:15:30;2.05;;;1.48;;
63089;SDS011;49174;43.198;27.824;2023-09-12T12:17:56;6.57;;;1.20;;
63089;SDS011;49174;43.198;27.824;2023-09-12T12:20:22;3.67;;;1.50;;
63089;SDS011;49174;43.198;27.824;2023-09-12T12:22:48;3.15;;;1.80;;
63089;SDS011;49174;43.198;27.824;2023-09-12T12:25:17;2.13;;;1.60;;
63089;SDS011;49174;43.198;27.824;2023-09-12T12:27:43;3.60;;;1.38;;
63089;SDS011;49174;43.198;27.824;2023-09-12T12:30:10;4.43;;;1.13;;
63089;SDS011;49174;43.198;27.824;2023-09-12T12:32:40;3.53;;;1.10;;
63089;SDS011;49174;43.198;27.824;2023-09-12T12:35:07;3.45;;;1.58;;
63089;SDS011;49174;43.198;27.824;2023-09-12T12:37:35;2.15;;;1.38;;
63089;SDS011;49174;43.198;27.824;2023-09-12T12:40:02;1.70;;;1.30;;
63089;SDS011;49174;43.198;27.824;2023-09-12T12:42:34;1.90;;;1.45;;
63089;SDS011;49174;43.198;27.824;2023-09-12T12:45:10;1.80;;;1.20;;
63089;SDS011;49174;43.198;27.824;2023-09-12T12:47:43;2.05;;;1.27;;
63089;SDS011;49174;43.198;27.824;2023-09-12T12:50:13;2.22;;;1.52;;
63089;SDS011;49174;43.198;27.824;2023-09-12T12:52:41;10.45;;;2.10;;
63089;SDS011;49174;43.198;27.824;2023-09-12T12:55:07;2.60;;;1.40;;
63089;SDS011;49174;43.198;27.824;2023-09-12T12:57:36;1.77;;;1.20;;
63089;SDS011;49174;43.198;27.824;2023-09-12T13:00:04;4.43;;;1.30;;
63089;SDS011;49174;43.198;27.824;2023-09-12T13:02:31;5.55;;;1.67;;
63089;SDS011;49174;43.198;27.824;2023-09-12T13:04:57;4.07;;;1.60;;
63089;SDS011;49174;43.198;27.824;2023-09-12T13:07:22;4.88;;;1.52;;
63089;SDS011;49174;43.198;27.824;2023-09-12T13:09:49;2.45;;;1.05;;
63089;SDS011;49174;43.198;27.824;2023-09-12T13:12:14;1.70;;;1.30;;
63089;SDS011;49174;43.198;27.824;2023-09-12T13:14:41;1.33;;;1.10;;
63089;SDS011;49174;43.198;27.824;2023-09-12T13:17:07;2.40;;;1.58;;
63089;SDS011;49174;43.198;27.824;2023-09-12T13:19:33;1.80;;;1.30;;
63089;SDS011;49174;43.198;27.824;2023-09-12T13:21:58;3.08;;;1.08;;
63089;SDS011;49174;43.198;27.824;2023-09-12T13:24:24;2.85;;;1.30;;
63089;SDS011;49174;43.198;27.824;2023-09-12T13:26:49;1.83;;;1.15;;
63089;SDS011;49174;43.198;27.824;2023-09-12T13:29:15;1.73;;;1.08;;
63089;SDS011;49174;43.198;27.824;2023-09-12T13:31:41;2.13;;;1.50;;
63089;SDS011;49174;43.198;27.824;2023-09-12T13:34:06;1.67;;;1.00;;
63089;SDS011;49174;43.198;27.824;2023-09-12T13:36:32;2.45;;;1.40;;
63089;SDS011;49174;43.198;27.824;2023-09-12T13:38:58;2.13;;;1.20;;
63089;SDS011;49174;43.198;27.824;2023-09-12T13:41:23;2.20;;;1.05;;
63089;SDS011;49174;43.198;27.824;2023-09-12T13:43:50;1.90;;;1.20;;
63089;SDS011;49174;43.198;27.824;2023-09-12T13:46:16;4.90;;;1.45;;
63089;SDS011;49174;43.198;27.824;2023-09-12T13:48:41;1.90;;;1.40;;
63089;SDS011;49174;43.198;27.824;2023-09-12T13:51:07;1.83;;;1.27;;
63089;SDS011;49174;43.198;27.824;2023-09-12T13:53:32;1.55;;;1.27;;
63089;SDS011;49174;43.198;27.824;2023-09-12T13:55:58;3.55;;;1.25;;
63089;SDS011;49174;43.198;27.824;2023-09-12T13:58:25;3.95;;;1.75;;
63089;SDS011;49174;43.198;27.824;2023-09-12T14:00:51;3.15;;;1.10;;
63089;SDS011;49174;43.198;27.824;2023-09-12T14:03:16;2.05;;;1.17;;
63089;SDS011;49174;43.198;27.824;2023-09-12T14:05:42;2.10;;;1.25;;
63089;SDS011;49174;43.198;27.824;2023-09-12T14:08:08;1.35;;;1.20;;
63089;SDS011;49174;43.198;27.824;2023-09-12T14:10:33;1.83;;;1.38;;
63089;SDS011;49174;43.198;27.824;2023-09-12T14:12:59;1.85;;;1.20;;
63089;SDS011;49174;43.198;27.824;2023-09-12T14:15:24;0.90;;;0.75;;
63089;SDS011;49174;43.198;27.824;2023-09-12T14:17:54;1.63;;;1.17;;
63089;SDS011;49174;43.198;27.824;2023-09-12T14:20:19;2.10;;;1.23;;
63089;SDS011;49174;43.198;27.824;2023-09-12T14:22:45;3.60;;;1.58;;
63089;SDS011;49174;43.198;27.824;2023-09-12T14:25:10;2.28;;;0.98;;
63089;SDS011;49174;43.198;27.824;2023-09-12T14:27:40;1.70;;;1.10;;
63089;SDS011;49174;43.198;27.824;2023-09-12T14:30:07;2.05;;;1.40;;
63089;SDS011;49174;43.198;27.824;2023-09-12T14:32:33;1.48;;;1.05;;
63089;SDS011;49174;43.198;27.824;2023-09-12T14:34:59;1.00;;;0.90;;
63089;SDS011;49174;43.198;27.824;2023-09-12T14:37:24;1.65;;;1.30;;
63089;SDS011;49174;43.198;27.824;2023-09-12T14:39:53;2.35;;;1.33;;
63089;SDS011;49174;43.198;27.824;2023-09-12T14:42:20;2.00;;;1.27;;
63089;SDS011;49174;43.198;27.824;2023-09-12T14:44:46;2.58;;;1.30;;